Airport ID:KSMD
Update Time (UTC):29/11/2021 03:15
Wind Speed (Knots):4
Wind Direction (Magnetic):270
Temperature (°C):-1.7
Dew Point (°C):-5.4
Humidity (%):76.7
Altimeter (inHg):30.08
Density Altitude (Feet):
Visibility (Miles):10
Clouds (Hundreds of feet):CLR
Present Weather:
METAR:METAR KSMD 290310Z AUTO 27003KT 10SM CLR M02/M05 A3008 RMK A01

The data displayed is for advisory purposes only and is not to be used for flight planning or operations.